sensor_id;sensor_type;location;lat;lon;timestamp;temperature;humidity
1083;DHT22;530;51.448;7.238;2022-09-12T00:01:57;14.20;99.90
1083;DHT22;530;51.448;7.238;2022-09-12T00:04:23;14.20;99.90
1083;DHT22;530;51.448;7.238;2022-09-12T00:06:49;14.20;99.90
1083;DHT22;530;51.448;7.238;2022-09-12T00:09:15;14.10;99.90
1083;DHT22;530;51.448;7.238;2022-09-12T00:11:43;14.20;99.90
1083;DHT22;530;51.448;7.238;2022-09-12T00:14:13;14.10;99.90
1083;DHT22;530;51.448;7.238;2022-09-12T00:16:39;14.10;99.90
1083;DHT22;530;51.448;7.238;2022-09-12T00:19:06;14.10;99.90
1083;DHT22;530;51.448;7.238;2022-09-12T00:21:33;14.10;99.90
1083;DHT22;530;51.448;7.238;2022-09-12T00:23:59;14.10;99.90
1083;DHT22;530;51.448;7.238;2022-09-12T00:26:25;14.10;99.90
1083;DHT22;530;51.448;7.238;2022-09-12T00:28:51;14.10;99.90
1083;DHT22;530;51.448;7.238;2022-09-12T00:31:20;14.10;99.90
1083;DHT22;530;51.448;7.238;2022-09-12T00:33:48;14.00;99.90
1083;DHT22;530;51.448;7.238;2022-09-12T00:36:20;14.00;99.90
1083;DHT22;530;51.448;7.238;2022-09-12T00:38:47;14.00;99.90
1083;DHT22;530;51.448;7.238;2022-09-12T00:41:31;14.00;99.90
1083;DHT22;530;51.448;7.238;2022-09-12T00:44:38;14.00;99.90
1083;DHT22;530;51.448;7.238;2022-09-12T00:47:00;14.00;99.90
1083;DHT22;530;51.448;7.238;2022-09-12T00:49:31;13.90;99.90
1083;DHT22;530;51.448;7.238;2022-09-12T00:52:04;13.90;99.90
1083;DHT22;530;51.448;7.238;2022-09-12T00:54:40;13.90;99.90
1083;DHT22;530;51.448;7.238;2022-09-12T00:57:08;13.90;99.90
1083;DHT22;530;51.448;7.238;2022-09-12T00:59:40;13.90;99.90
1083;DHT22;530;51.448;7.238;2022-09-12T01:02:07;13.90;99.90
1083;DHT22;530;51.448;7.238;2022-09-12T01:04:35;13.80;99.90
1083;DHT22;530;51.448;7.238;2022-09-12T01:07:03;13.70;99.90
1083;DHT22;530;51.448;7.238;2022-09-12T01:09:29;13.70;99.90
1083;DHT22;530;51.448;7.238;2022-09-12T01:11:56;13.80;99.90
1083;DHT22;530;51.448;7.238;2022-09-12T01:14:22;13.70;99.90
1083;DHT22;530;51.448;7.238;2022-09-12T01:16:49;13.80;99.90
1083;DHT22;530;51.448;7.238;2022-09-12T01:31:35;13.50;99.90
1083;DHT22;530;51.448;7.238;2022-09-12T01:34:06;13.50;99.90
1083;DHT22;530;51.448;7.238;2022-09-12T01:36:52;13.50;99.90
1083;DHT22;530;51.448;7.238;2022-09-12T01:42:33;13.40;99.90
1083;DHT22;530;51.448;7.238;2022-09-12T01:47:38;13.50;99.90
1083;DHT22;530;51.448;7.238;2022-09-12T01:55:20;13.50;99.90
1083;DHT22;530;51.448;7.238;2022-09-12T01:58:02;13.50;99.90
1083;DHT22;530;51.448;7.238;2022-09-12T02:00:31;13.50;99.90
1083;DHT22;530;51.448;7.238;2022-09-12T02:05:43;13.50;99.90
1083;DHT22;530;51.448;7.238;2022-09-12T02:11:12;13.60;99.90
1083;DHT22;530;51.448;7.238;2022-09-12T02:13:43;13.60;99.90
1083;DHT22;530;51.448;7.238;2022-09-12T02:16:12;13.70;99.90
1083;DHT22;530;51.448;7.238;2022-09-12T02:18:44;13.70;99.90
1083;DHT22;530;51.448;7.238;2022-09-12T02:21:11;13.90;99.90
1083;DHT22;530;51.448;7.238;2022-09-12T02:23:40;13.80;99.90
1083;DHT22;530;51.448;7.238;2022-09-12T02:26:18;13.90;99.90
1083;DHT22;530;51.448;7.238;2022-09-12T02:28:44;13.90;99.90
1083;DHT22;530;51.448;7.238;2022-09-12T02:31:30;13.90;99.90
1083;DHT22;530;51.448;7.238;2022-09-12T02:34:09;13.90;99.90
1083;DHT22;530;51.448;7.238;2022-09-12T02:36:57;13.90;99.90
1083;DHT22;530;51.448;7.238;2022-09-12T02:39:25;13.90;99.90
1083;DHT22;530;51.448;7.238;2022-09-12T02:41:52;14.00;99.90
1083;DHT22;530;51.448;7.238;2022-09-12T02:44:18;14.00;99.90
1083;DHT22;530;51.448;7.238;2022-09-12T02:46:50;14.00;99.90
1083;DHT22;530;51.448;7.238;2022-09-12T02:49:18;14.10;99.90
1083;DHT22;530;51.448;7.238;2022-09-12T02:51:45;14.20;99.90
1083;DHT22;530;51.448;7.238;2022-09-12T02:54:11;14.20;99.90
1083;DHT22;530;51.448;7.238;2022-09-12T02:56:40;14.30;99.90
1083;DHT22;530;51.448;7.238;2022-09-12T02:59:08;14.20;99.90
1083;DHT22;530;51.448;7.238;2022-09-12T03:16:57;14.20;99.90
1083;DHT22;530;51.448;7.238;2022-09-12T03:22:46;14.10;99.90
1083;DHT22;530;51.448;7.238;2022-09-12T03:25:35;14.00;99.90
1083;DHT22;530;51.448;7.238;2022-09-12T03:28:10;14.00;99.90
1083;DHT22;530;51.448;7.238;2022-09-12T03:30:40;14.00;99.90
1083;DHT22;530;51.448;7.238;2022-09-12T03:33:09;14.00;99.90
1083;DHT22;530;51.448;7.238;2022-09-12T03:35:35;14.10;99.90
1083;DHT22;530;51.448;7.238;2022-09-12T03:38:00;14.00;99.90
1083;DHT22;530;51.448;7.238;2022-09-12T03:40:26;14.00;99.90
1083;DHT22;530;51.448;7.238;2022-09-12T03:42:51;14.00;99.90
1083;DHT22;530;51.448;7.238;2022-09-12T03:45:18;14.00;99.90
1083;DHT22;530;51.448;7.238;2022-09-12T03:47:44;14.00;99.90
1083;DHT22;530;51.448;7.238;2022-09-12T03:50:09;14.10;99.90
1083;DHT22;530;51.448;7.238;2022-09-12T03:52:35;14.00;99.90
1083;DHT22;530;51.448;7.238;2022-09-12T03:55:01;14.10;99.90
1083;DHT22;530;51.448;7.238;2022-09-12T03:57:27;14.00;99.90
1083;DHT22;530;51.448;7.238;2022-09-12T03:59:52;14.00;99.90
1083;DHT22;530;51.448;7.238;2022-09-12T04:02:18;14.00;99.90
1083;DHT22;530;51.448;7.238;2022-09-12T04:04:44;14.00;99.90
1083;DHT22;530;51.448;7.238;2022-09-12T04:07:12;14.00;99.90
1083;DHT22;530;51.448;7.238;2022-09-12T04:09:37;14.00;99.90
1083;DHT22;530;51.448;7.238;2022-09-12T04:12:04;14.00;99.90
1083;DHT22;530;51.448;7.238;2022-09-12T04:14:29;14.10;99.90
1083;DHT22;530;51.448;7.238;2022-09-12T04:16:55;14.10;99.90
1083;DHT22;530;51.448;7.238;2022-09-12T04:19:21;14.10;99.90
1083;DHT22;530;51.448;7.238;2022-09-12T04:21:48;14.10;99.90
1083;DHT22;530;51.448;7.238;2022-09-12T04:24:13;14.10;99.90
1083;DHT22;530;51.448;7.238;2022-09-12T04:26:39;14.20;99.90
1083;DHT22;530;51.448;7.238;2022-09-12T04:29:04;14.10;99.90
1083;DHT22;530;51.448;7.238;2022-09-12T04:31:30;14.10;99.90
1083;DHT22;530;51.448;7.238;2022-09-12T04:33:58;14.10;99.90
1083;DHT22;530;51.448;7.238;2022-09-12T04:36:24;14.00;99.90
1083;DHT22;530;51.448;7.238;2022-09-12T04:38:51;14.00;99.90
1083;DHT22;530;51.448;7.238;2022-09-12T04:43:43;13.90;99.90
1083;DHT22;530;51.448;7.238;2022-09-12T04:46:11;13.90;99.90
1083;DHT22;530;51.448;7.238;2022-09-12T04:48:38;13.90;99.90
1083;DHT22;530;51.448;7.238;2022-09-12T04:51:13;13.90;99.90
1083;DHT22;530;51.448;7.238;2022-09-12T04:53:39;13.90;99.90
1083;DHT22;530;51.448;7.238;2022-09-12T04:56:07;13.80;99.90
1083;DHT22;530;51.448;7.238;2022-09-12T04:58:34;13.80;99.90
1083;DHT22;530;51.448;7.238;2022-09-12T05:03:30;13.70;99.90
1083;DHT22;530;51.448;7.238;2022-09-12T05:05:56;13.70;99.90
1083;DHT22;530;51.448;7.238;2022-09-12T05:08:22;13.70;99.90
1083;DHT22;530;51.448;7.238;2022-09-12T05:10:47;13.80;99.90
1083;DHT22;530;51.448;7.238;2022-09-12T05:13:13;13.80;99.90
1083;DHT22;530;51.448;7.238;2022-09-12T05:15:39;13.80;99.90
1083;DHT22;530;51.448;7.238;2022-09-12T05:18:05;13.80;99.90
1083;DHT22;530;51.448;7.238;2022-09-12T05:20:32;13.80;99.90
1083;DHT22;530;51.448;7.238;2022-09-12T05:22:58;13.80;99.90
1083;DHT22;530;51.448;7.238;2022-09-12T05:25:24;13.80;99.90
1083;DHT22;530;51.448;7.238;2022-09-12T05:27:52;13.80;99.90
1083;DHT22;530;51.448;7.238;2022-09-12T05:30:17;13.90;99.90
1083;DHT22;530;51.448;7.238;2022-09-12T05:32:43;13.90;99.90
1083;DHT22;530;51.448;7.238;2022-09-12T05:35:09;14.00;99.90
1083;DHT22;530;51.448;7.238;2022-09-12T05:37:36;14.00;99.90
1083;DHT22;530;51.448;7.238;2022-09-12T05:40:02;14.00;99.90
1083;DHT22;530;51.448;7.238;2022-09-12T05:42:32;14.10;99.90
1083;DHT22;530;51.448;7.238;2022-09-12T05:44:57;14.10;99.90
1083;DHT22;530;51.448;7.238;2022-09-12T05:47:23;14.10;99.90
1083;DHT22;530;51.448;7.238;2022-09-12T05:49:49;14.10;99.90
1083;DHT22;530;51.448;7.238;2022-09-12T05:52:16;14.20;99.90
1083;DHT22;530;51.448;7.238;2022-09-12T05:54:42;14.30;99.90
1083;DHT22;530;51.448;7.238;2022-09-12T05:57:08;14.40;99.90
1083;DHT22;530;51.448;7.238;2022-09-12T05:59:33;14.50;99.90
1083;DHT22;530;51.448;7.238;2022-09-12T06:01:59;14.60;99.90
1083;DHT22;530;51.448;7.238;2022-09-12T06:04:25;14.70;99.90
1083;DHT22;530;51.448;7.238;2022-09-12T06:06:52;14.80;99.90
1083;DHT22;530;51.448;7.238;2022-09-12T06:09:18;14.90;99.90
1083;DHT22;530;51.448;7.238;2022-09-12T06:11:44;15.00;99.90
1083;DHT22;530;51.448;7.238;2022-09-12T06:14:12;15.10;99.90
1083;DHT22;530;51.448;7.238;2022-09-12T06:16:38;15.30;99.90
1083;DHT22;530;51.448;7.238;2022-09-12T06:19:16;15.40;99.90
1083;DHT22;530;51.448;7.238;2022-09-12T06:21:42;15.70;99.90
1083;DHT22;530;51.448;7.238;2022-09-12T06:24:08;15.80;99.90
1083;DHT22;530;51.448;7.238;2022-09-12T06:26:34;15.90;99.90
1083;DHT22;530;51.448;7.238;2022-09-12T06:29:00;16.10;99.90
1083;DHT22;530;51.448;7.238;2022-09-12T06:31:32;16.20;99.90
1083;DHT22;530;51.448;7.238;2022-09-12T06:34:00;16.30;99.90
1083;DHT22;530;51.448;7.238;2022-09-12T06:36:33;16.50;99.90
1083;DHT22;530;51.448;7.238;2022-09-12T06:39:09;16.60;99.90
1083;DHT22;530;51.448;7.238;2022-09-12T06:41:35;16.70;99.90
1083;DHT22;530;51.448;7.238;2022-09-12T06:44:01;16.70;99.90
1083;DHT22;530;51.448;7.238;2022-09-12T06:46:27;16.80;99.90
1083;DHT22;530;51.448;7.238;2022-09-12T06:48:57;16.80;99.90
1083;DHT22;530;51.448;7.238;2022-09-12T06:51:24;16.70;99.90
1083;DHT22;530;51.448;7.238;2022-09-12T06:53:50;16.70;99.90
1083;DHT22;530;51.448;7.238;2022-09-12T06:56:21;16.70;99.90
1083;DHT22;530;51.448;7.238;2022-09-12T06:58:48;16.70;99.90
1083;DHT22;530;51.448;7.238;2022-09-12T07:01:20;16.70;99.90
1083;DHT22;530;51.448;7.238;2022-09-12T07:03:50;16.70;99.90
1083;DHT22;530;51.448;7.238;2022-09-12T07:06:18;16.60;99.90
1083;DHT22;530;51.448;7.238;2022-09-12T07:08:44;16.70;99.90
1083;DHT22;530;51.448;7.238;2022-09-12T07:13:42;16.80;99.90
1083;DHT22;530;51.448;7.238;2022-09-12T07:16:09;16.90;99.90
1083;DHT22;530;51.448;7.238;2022-09-12T07:18:35;17.00;99.90
1083;DHT22;530;51.448;7.238;2022-09-12T07:21:10;17.10;99.90
1083;DHT22;530;51.448;7.238;2022-09-12T07:23:36;17.10;99.90
1083;DHT22;530;51.448;7.238;2022-09-12T07:26:03;17.20;99.90
1083;DHT22;530;51.448;7.238;2022-09-12T07:28:30;17.10;99.90
1083;DHT22;530;51.448;7.238;2022-09-12T07:30:56;17.20;99.90
1083;DHT22;530;51.448;7.238;2022-09-12T07:33:26;17.20;99.90
1083;DHT22;530;51.448;7.238;2022-09-12T07:35:51;17.30;99.90
1083;DHT22;530;51.448;7.238;2022-09-12T07:38:19;17.30;99.90
1083;DHT22;530;51.448;7.238;2022-09-12T07:40:45;17.30;99.90
1083;DHT22;530;51.448;7.238;2022-09-12T07:43:11;17.30;99.90
1083;DHT22;530;51.448;7.238;2022-09-12T07:45:37;17.40;99.90
1083;DHT22;530;51.448;7.238;2022-09-12T07:48:06;17.40;99.90
1083;DHT22;530;51.448;7.238;2022-09-12T07:50:32;17.40;99.90
1083;DHT22;530;51.448;7.238;2022-09-12T07:52:58;17.40;99.90
1083;DHT22;530;51.448;7.238;2022-09-12T07:55:23;17.40;99.90
1083;DHT22;530;51.448;7.238;2022-09-12T07:57:50;17.50;99.90
1083;DHT22;530;51.448;7.238;2022-09-12T08:00:17;17.50;99.90
1083;DHT22;530;51.448;7.238;2022-09-12T08:02:43;17.50;99.90
1083;DHT22;530;51.448;7.238;2022-09-12T08:05:08;17.50;99.90
1083;DHT22;530;51.448;7.238;2022-09-12T08:07:34;17.60;99.90
1083;DHT22;530;51.448;7.238;2022-09-12T08:10:00;17.60;99.90
1083;DHT22;530;51.448;7.238;2022-09-12T08:12:29;17.60;99.90
1083;DHT22;530;51.448;7.238;2022-09-12T08:14:56;17.60;99.90
1083;DHT22;530;51.448;7.238;2022-09-12T08:17:22;17.70;99.90
1083;DHT22;530;51.448;7.238;2022-09-12T08:19:48;17.70;99.90
1083;DHT22;530;51.448;7.238;2022-09-12T08:22:14;17.90;99.90
1083;DHT22;530;51.448;7.238;2022-09-12T08:24:39;17.90;99.90
1083;DHT22;530;51.448;7.238;2022-09-12T08:27:06;18.00;99.90
1083;DHT22;530;51.448;7.238;2022-09-12T08:29:32;18.00;99.90
1083;DHT22;530;51.448;7.238;2022-09-12T08:31:58;18.10;99.90
1083;DHT22;530;51.448;7.238;2022-09-12T08:34:23;18.20;99.90
1083;DHT22;530;51.448;7.238;2022-09-12T08:36:50;18.20;99.90
1083;DHT22;530;51.448;7.238;2022-09-12T08:39:19;18.30;99.90
1083;DHT22;530;51.448;7.238;2022-09-12T08:41:46;18.30;99.90
1083;DHT22;530;51.448;7.238;2022-09-12T08:47:25;18.40;99.90
1083;DHT22;530;51.448;7.238;2022-09-12T08:52:55;18.50;99.90
1083;DHT22;530;51.448;7.238;2022-09-12T08:55:45;18.60;99.90
1083;DHT22;530;51.448;7.238;2022-09-12T08:58:19;18.70;99.90
1083;DHT22;530;51.448;7.238;2022-09-12T09:17:11;19.00;99.90
1083;DHT22;530;51.448;7.238;2022-09-12T09:19:48;19.10;99.90
1083;DHT22;530;51.448;7.238;2022-09-12T09:22:29;19.20;99.90
1083;DHT22;530;51.448;7.238;2022-09-12T09:25:00;19.20;99.90
1083;DHT22;530;51.448;7.238;2022-09-12T09:29:55;19.50;99.90
1083;DHT22;530;51.448;7.238;2022-09-12T09:32:35;19.60;99.90
1083;DHT22;530;51.448;7.238;2022-09-12T09:35:13;19.70;99.90
1083;DHT22;530;51.448;7.238;2022-09-12T09:37:43;19.80;99.90
1083;DHT22;530;51.448;7.238;2022-09-12T09:40:38;19.80;99.90
1083;DHT22;530;51.448;7.238;2022-09-12T09:43:31;19.90;99.90
1083;DHT22;530;51.448;7.238;2022-09-12T09:45:57;20.00;99.90
1083;DHT22;530;51.448;7.238;2022-09-12T09:48:39;20.00;99.90
1083;DHT22;530;51.448;7.238;2022-09-12T09:51:06;20.00;99.90
1083;DHT22;530;51.448;7.238;2022-09-12T09:56:08;20.00;99.90
1083;DHT22;530;51.448;7.238;2022-09-12T09:58:35;20.30;99.90
1083;DHT22;530;51.448;7.238;2022-09-12T10:01:03;20.50;99.90
1083;DHT22;530;51.448;7.238;2022-09-12T10:03:36;20.70;99.90
1083;DHT22;530;51.448;7.238;2022-09-12T10:08:45;21.10;99.90
1083;DHT22;530;51.448;7.238;2022-09-12T10:13:50;21.30;99.90
1083;DHT22;530;51.448;7.238;2022-09-12T10:16:47;21.20;99.90
1083;DHT22;530;51.448;7.238;2022-09-12T10:19:21;21.30;99.90
1083;DHT22;530;51.448;7.238;2022-09-12T10:21:55;21.40;99.90
1083;DHT22;530;51.448;7.238;2022-09-12T10:24:27;21.50;99.90
1083;DHT22;530;51.448;7.238;2022-09-12T10:26:57;21.60;99.90
1083;DHT22;530;51.448;7.238;2022-09-12T10:29:32;21.70;99.90
1083;DHT22;530;51.448;7.238;2022-09-12T10:32:05;21.80;99.90
1083;DHT22;530;51.448;7.238;2022-09-12T10:34:38;21.90;99.90
1083;DHT22;530;51.448;7.238;2022-09-12T10:37:18;22.00;99.90
1083;DHT22;530;51.448;7.238;2022-09-12T10:40:18;22.00;99.90
1083;DHT22;530;51.448;7.238;2022-09-12T10:42:50;22.10;99.90
1083;DHT22;530;51.448;7.238;2022-09-12T10:45:23;22.20;99.90
1083;DHT22;530;51.448;7.238;2022-09-12T10:47:51;22.30;99.90
1083;DHT22;530;51.448;7.238;2022-09-12T10:52:52;22.50;99.90
1083;DHT22;530;51.448;7.238;2022-09-12T10:55:24;22.60;99.90
1083;DHT22;530;51.448;7.238;2022-09-12T10:58:00;22.60;99.90
1083;DHT22;530;51.448;7.238;2022-09-12T11:00:29;22.70;99.90
1083;DHT22;530;51.448;7.238;2022-09-12T11:03:15;22.70;99.90
1083;DHT22;530;51.448;7.238;2022-09-12T11:05:47;22.80;99.90
1083;DHT22;530;51.448;7.238;2022-09-12T11:08:43;22.90;99.90
1083;DHT22;530;51.448;7.238;2022-09-12T11:11:33;23.00;99.90
1083;DHT22;530;51.448;7.238;2022-09-12T11:17:18;23.00;99.90
1083;DHT22;530;51.448;7.238;2022-09-12T11:20:07;23.10;99.90
1083;DHT22;530;51.448;7.238;2022-09-12T11:33:54;23.40;99.90
1083;DHT22;530;51.448;7.238;2022-09-12T11:39:41;23.50;99.90
1083;DHT22;530;51.448;7.238;2022-09-12T11:42:15;23.30;99.90
1083;DHT22;530;51.448;7.238;2022-09-12T11:44:45;23.20;99.90
1083;DHT22;530;51.448;7.238;2022-09-12T11:47:12;23.20;99.90
1083;DHT22;530;51.448;7.238;2022-09-12T11:49:39;23.20;99.90
1083;DHT22;530;51.448;7.238;2022-09-12T11:52:13;23.30;99.90
1083;DHT22;530;51.448;7.238;2022-09-12T11:57:41;23.50;99.90
1083;DHT22;530;51.448;7.238;2022-09-12T12:03:17;23.30;99.90
1083;DHT22;530;51.448;7.238;2022-09-12T12:08:21;23.20;99.90
1083;DHT22;530;51.448;7.238;2022-09-12T12:10:55;23.30;99.90
1083;DHT22;530;51.448;7.238;2022-09-12T12:13:29;23.30;99.90
1083;DHT22;530;51.448;7.238;2022-09-12T12:16:05;23.40;99.90
1083;DHT22;530;51.448;7.238;2022-09-12T12:18:35;23.40;99.90
1083;DHT22;530;51.448;7.238;2022-09-12T12:26:58;23.40;99.80
1083;DHT22;530;51.448;7.238;2022-09-12T12:36:57;23.50;99.30
1083;DHT22;530;51.448;7.238;2022-09-12T12:41:56;23.10;99.60
1083;DHT22;530;51.448;7.238;2022-09-12T12:44:58;23.00;99.90
1083;DHT22;530;51.448;7.238;2022-09-12T12:49:58;23.10;99.90
1083;DHT22;530;51.448;7.238;2022-09-12T12:52:29;23.30;99.90
1083;DHT22;530;51.448;7.238;2022-09-12T12:54:57;23.50;99.90
1083;DHT22;530;51.448;7.238;2022-09-12T12:57:28;23.60;99.60
1083;DHT22;530;51.448;7.238;2022-09-12T13:00:21;23.70;99.90
1083;DHT22;530;51.448;7.238;2022-09-12T13:05:28;23.80;98.90
1083;DHT22;530;51.448;7.238;2022-09-12T13:08:31;23.80;98.10
1083;DHT22;530;51.448;7.238;2022-09-12T13:11:15;23.80;97.90
1083;DHT22;530;51.448;7.238;2022-09-12T13:16:50;23.80;97.40
1083;DHT22;530;51.448;7.238;2022-09-12T13:19:23;23.70;97.10
1083;DHT22;530;51.448;7.238;2022-09-12T13:21:56;23.60;97.20
1083;DHT22;530;51.448;7.238;2022-09-12T13:24:24;23.60;97.50
1083;DHT22;530;51.448;7.238;2022-09-12T13:26:50;23.60;97.80
1083;DHT22;530;51.448;7.238;2022-09-12T13:29:21;23.70;97.90
1083;DHT22;530;51.448;7.238;2022-09-12T13:32:00;23.80;97.70
1083;DHT22;530;51.448;7.238;2022-09-12T13:34:30;23.90;97.00
1083;DHT22;530;51.448;7.238;2022-09-12T13:42:43;23.90;96.40
1083;DHT22;530;51.448;7.238;2022-09-12T13:45:18;23.80;96.30
1083;DHT22;530;51.448;7.238;2022-09-12T13:47:47;23.80;96.70
1083;DHT22;530;51.448;7.238;2022-09-12T13:50:36;23.80;96.10
1083;DHT22;530;51.448;7.238;2022-09-12T13:53:11;23.70;96.30
1083;DHT22;530;51.448;7.238;2022-09-12T13:55:40;23.70;95.70
1083;DHT22;530;51.448;7.238;2022-09-12T13:58:15;23.70;95.90
1083;DHT22;530;51.448;7.238;2022-09-12T14:00:41;23.80;96.70
1083;DHT22;530;51.448;7.238;2022-09-12T14:03:48;23.80;97.40
1083;DHT22;530;51.448;7.238;2022-09-12T14:06:51;23.80;96.30
1083;DHT22;530;51.448;7.238;2022-09-12T14:09:44;23.80;96.10
1083;DHT22;530;51.448;7.238;2022-09-12T14:12:24;23.80;96.30
1083;DHT22;530;51.448;7.238;2022-09-12T14:14:50;23.80;96.80
1083;DHT22;530;51.448;7.238;2022-09-12T14:17:34;23.80;97.10
1083;DHT22;530;51.448;7.238;2022-09-12T14:20:13;23.80;97.40
1083;DHT22;530;51.448;7.238;2022-09-12T14:22:40;23.80;97.90
1083;DHT22;530;51.448;7.238;2022-09-12T14:25:13;23.80;96.70
1083;DHT22;530;51.448;7.238;2022-09-12T14:27:43;23.80;97.10
1083;DHT22;530;51.448;7.238;2022-09-12T14:30:32;23.70;96.40
1083;DHT22;530;51.448;7.238;2022-09-12T14:36:16;23.60;96.70
1083;DHT22;530;51.448;7.238;2022-09-12T14:38:45;23.60;96.50
1083;DHT22;530;51.448;7.238;2022-09-12T14:41:13;23.60;97.00
1083;DHT22;530;51.448;7.238;2022-09-12T14:43:46;23.60;96.10
1083;DHT22;530;51.448;7.238;2022-09-12T14:46:18;23.60;96.30
1083;DHT22;530;51.448;7.238;2022-09-12T14:48:53;23.70;96.00
1083;DHT22;530;51.448;7.238;2022-09-12T14:54:55;23.70;95.60
1083;DHT22;530;51.448;7.238;2022-09-12T14:59:52;23.60;95.40
1083;DHT22;530;51.448;7.238;2022-09-12T15:04:51;23.60;96.10
1083;DHT22;530;51.448;7.238;2022-09-12T15:10:21;23.60;96.40
1083;DHT22;530;51.448;7.238;2022-09-12T15:12:50;23.60;96.60
1083;DHT22;530;51.448;7.238;2022-09-12T15:15:27;23.70;96.90
1083;DHT22;530;51.448;7.238;2022-09-12T15:17:53;23.70;96.20
1083;DHT22;530;51.448;7.238;2022-09-12T15:20:18;23.60;96.00
1083;DHT22;530;51.448;7.238;2022-09-12T15:22:44;23.60;96.50
1083;DHT22;530;51.448;7.238;2022-09-12T15:25:11;23.60;96.90
1083;DHT22;530;51.448;7.238;2022-09-12T15:27:37;23.60;96.90
1083;DHT22;530;51.448;7.238;2022-09-12T15:30:10;23.50;97.00
1083;DHT22;530;51.448;7.238;2022-09-12T15:32:41;23.60;96.80
1083;DHT22;530;51.448;7.238;2022-09-12T15:35:16;23.60;96.60
1083;DHT22;530;51.448;7.238;2022-09-12T15:37:42;23.60;96.30
1083;DHT22;530;51.448;7.238;2022-09-12T15:40:10;23.60;96.40
1083;DHT22;530;51.448;7.238;2022-09-12T15:42:36;23.50;96.30
1083;DHT22;530;51.448;7.238;2022-09-12T15:45:04;23.50;96.10
1083;DHT22;530;51.448;7.238;2022-09-12T15:47:34;23.50;96.00
1083;DHT22;530;51.448;7.238;2022-09-12T15:50:00;23.50;95.90
1083;DHT22;530;51.448;7.238;2022-09-12T15:52:25;23.40;95.40
1083;DHT22;530;51.448;7.238;2022-09-12T15:54:51;23.40;95.80
1083;DHT22;530;51.448;7.238;2022-09-12T15:57:17;23.40;95.40
1083;DHT22;530;51.448;7.238;2022-09-12T15:59:42;23.30;96.00
1083;DHT22;530;51.448;7.238;2022-09-12T16:02:09;23.30;96.50
1083;DHT22;530;51.448;7.238;2022-09-12T16:04:35;23.30;96.30
1083;DHT22;530;51.448;7.238;2022-09-12T16:07:01;23.30;96.80
1083;DHT22;530;51.448;7.238;2022-09-12T16:09:27;23.20;96.40
1083;DHT22;530;51.448;7.238;2022-09-12T16:11:52;23.20;96.30
1083;DHT22;530;51.448;7.238;2022-09-12T16:14:18;23.20;96.50
1083;DHT22;530;51.448;7.238;2022-09-12T16:16:51;23.20;96.50
1083;DHT22;530;51.448;7.238;2022-09-12T16:19:18;23.20;96.80
1083;DHT22;530;51.448;7.238;2022-09-12T16:21:43;23.20;96.60
1083;DHT22;530;51.448;7.238;2022-09-12T16:24:09;23.20;96.50
1083;DHT22;530;51.448;7.238;2022-09-12T16:26:35;23.10;96.80
1083;DHT22;530;51.448;7.238;2022-09-12T16:29:00;23.10;97.00
1083;DHT22;530;51.448;7.238;2022-09-12T16:31:26;23.10;97.20
1083;DHT22;530;51.448;7.238;2022-09-12T16:33:53;23.00;96.70
1083;DHT22;530;51.448;7.238;2022-09-12T16:36:20;22.90;97.10
1083;DHT22;530;51.448;7.238;2022-09-12T16:38:50;22.90;97.40
1083;DHT22;530;51.448;7.238;2022-09-12T16:41:18;22.90;97.60
1083;DHT22;530;51.448;7.238;2022-09-12T16:43:45;22.90;97.90
1083;DHT22;530;51.448;7.238;2022-09-12T16:46:16;22.80;98.30
1083;DHT22;530;51.448;7.238;2022-09-12T16:48:48;22.80;97.60
1083;DHT22;530;51.448;7.238;2022-09-12T16:51:15;22.70;97.80
1083;DHT22;530;51.448;7.238;2022-09-12T16:53:41;22.70;98.10
1083;DHT22;530;51.448;7.238;2022-09-12T16:56:08;22.70;98.40
1083;DHT22;530;51.448;7.238;2022-09-12T16:58:35;22.60;98.60
1083;DHT22;530;51.448;7.238;2022-09-12T17:03:30;22.60;98.90
1083;DHT22;530;51.448;7.238;2022-09-12T17:06:00;22.60;98.50
1083;DHT22;530;51.448;7.238;2022-09-12T17:08:27;22.60;99.00
1083;DHT22;530;51.448;7.238;2022-09-12T17:10:59;22.50;99.00
1083;DHT22;530;51.448;7.238;2022-09-12T17:13:25;22.50;99.20
1083;DHT22;530;51.448;7.238;2022-09-12T17:15:51;22.50;99.50
1083;DHT22;530;51.448;7.238;2022-09-12T17:18:16;22.50;99.80
1083;DHT22;530;51.448;7.238;2022-09-12T17:20:42;22.40;99.90
1083;DHT22;530;51.448;7.238;2022-09-12T17:23:08;22.40;99.80
1083;DHT22;530;51.448;7.238;2022-09-12T17:25:33;22.40;99.90
1083;DHT22;530;51.448;7.238;2022-09-12T17:27:59;22.30;99.90
1083;DHT22;530;51.448;7.238;2022-09-12T17:30:24;22.20;99.90
1083;DHT22;530;51.448;7.238;2022-09-12T17:32:51;22.10;99.90
1083;DHT22;530;51.448;7.238;2022-09-12T17:35:16;22.00;99.90
1083;DHT22;530;51.448;7.238;2022-09-12T17:37:42;21.90;99.90
1083;DHT22;530;51.448;7.238;2022-09-12T17:40:08;21.70;99.90
1083;DHT22;530;51.448;7.238;2022-09-12T17:42:34;21.60;99.90
1083;DHT22;530;51.448;7.238;2022-09-12T17:45:00;21.40;99.90
1083;DHT22;530;51.448;7.238;2022-09-12T17:47:26;21.20;99.90
1083;DHT22;530;51.448;7.238;2022-09-12T17:49:52;21.00;99.90
1083;DHT22;530;51.448;7.238;2022-09-12T17:52:18;20.90;99.90
1083;DHT22;530;51.448;7.238;2022-09-12T17:54:44;20.70;99.90
1083;DHT22;530;51.448;7.238;2022-09-12T17:57:09;20.60;99.90
1083;DHT22;530;51.448;7.238;2022-09-12T17:59:35;20.40;99.90
1083;DHT22;530;51.448;7.238;2022-09-12T18:02:01;20.30;99.90
1083;DHT22;530;51.448;7.238;2022-09-12T18:04:43;20.20;99.90
1083;DHT22;530;51.448;7.238;2022-09-12T18:07:14;20.10;99.90
1083;DHT22;530;51.448;7.238;2022-09-12T18:09:40;20.00;99.90
1083;DHT22;530;51.448;7.238;2022-09-12T18:12:10;19.80;99.90
1083;DHT22;530;51.448;7.238;2022-09-12T18:14:36;19.70;99.90
1083;DHT22;530;51.448;7.238;2022-09-12T18:17:03;19.60;99.90
1083;DHT22;530;51.448;7.238;2022-09-12T18:19:31;19.60;99.90
1083;DHT22;530;51.448;7.238;2022-09-12T18:21:57;19.50;99.90
1083;DHT22;530;51.448;7.238;2022-09-12T18:24:23;19.50;99.90
1083;DHT22;530;51.448;7.238;2022-09-12T18:26:49;19.50;99.90
1083;DHT22;530;51.448;7.238;2022-09-12T18:29:15;19.60;99.90
1083;DHT22;530;51.448;7.238;2022-09-12T18:31:42;19.60;99.90
1083;DHT22;530;51.448;7.238;2022-09-12T18:34:10;19.50;99.90
1083;DHT22;530;51.448;7.238;2022-09-12T18:36:39;19.50;99.90
1083;DHT22;530;51.448;7.238;2022-09-12T18:39:05;19.50;99.90
1083;DHT22;530;51.448;7.238;2022-09-12T18:41:30;19.40;99.90
1083;DHT22;530;51.448;7.238;2022-09-12T18:43:58;19.30;99.90
1083;DHT22;530;51.448;7.238;2022-09-12T18:46:25;19.20;99.90
1083;DHT22;530;51.448;7.238;2022-09-12T18:48:51;19.20;99.90
1083;DHT22;530;51.448;7.238;2022-09-12T18:51:21;19.20;99.90
1083;DHT22;530;51.448;7.238;2022-09-12T18:53:59;19.20;99.90
1083;DHT22;530;51.448;7.238;2022-09-12T18:56:27;19.40;99.90
1083;DHT22;530;51.448;7.238;2022-09-12T18:58:56;19.30;99.90
1083;DHT22;530;51.448;7.238;2022-09-12T19:01:23;19.30;99.90
1083;DHT22;530;51.448;7.238;2022-09-12T19:03:48;19.20;99.90
1083;DHT22;530;51.448;7.238;2022-09-12T19:06:20;19.10;99.90
1083;DHT22;530;51.448;7.238;2022-09-12T19:08:47;19.00;99.90
1083;DHT22;530;51.448;7.238;2022-09-12T19:11:13;18.90;99.90
1083;DHT22;530;51.448;7.238;2022-09-12T19:13:41;18.90;99.90
1083;DHT22;530;51.448;7.238;2022-09-12T19:16:09;18.90;99.90
1083;DHT22;530;51.448;7.238;2022-09-12T19:18:36;18.80;99.90